createdAt,value
2017-11-27T00:00:07.783Z,980.98
2017-11-27T00:01:07.821Z,980.98
2017-11-27T00:02:07.883Z,980.99
2017-11-27T00:03:07.908Z,980.90
2017-11-27T00:04:07.949Z,980.93
2017-11-27T00:05:07.989Z,980.91
2017-11-27T00:06:08.037Z,980.95
2017-11-27T00:07:08.093Z,980.90
2017-11-27T00:08:08.131Z,980.91
2017-11-27T00:09:08.159Z,980.93
2017-11-27T00:10:08.200Z,980.91
2017-11-27T00:11:08.242Z,980.90
2017-11-27T00:12:08.301Z,980.90
2017-11-27T00:13:08.358Z,980.89
2017-11-27T00:14:08.368Z,980.89
2017-11-27T00:15:08.411Z,980.91
2017-11-27T00:16:08.452Z,980.95
2017-11-27T00:17:08.492Z,980.90
2017-11-27T00:18:08.551Z,980.90
2017-11-27T00:19:08.577Z,980.85
2017-11-27T00:20:08.626Z,980.89
2017-11-27T00:21:08.667Z,980.88
2017-11-27T00:22:08.707Z,980.89
2017-11-27T00:23:08.763Z,980.89
2017-11-27T00:24:08.793Z,980.88
2017-11-27T00:25:08.829Z,980.91
2017-11-27T00:26:08.870Z,980.88
2017-11-27T00:27:08.911Z,980.87
2017-11-27T00:28:08.969Z,980.88
2017-11-27T00:29:09.014Z,980.89
2017-11-27T00:30:09.037Z,980.90
2017-11-27T00:31:09.078Z,980.90
2017-11-27T00:32:09.127Z,980.88
2017-11-27T00:33:09.165Z,980.94
2017-11-27T00:34:09.221Z,980.92
2017-11-27T00:35:09.254Z,980.93
2017-11-27T00:36:09.293Z,980.94
2017-11-27T00:37:09.330Z,980.95
2017-11-27T00:38:09.376Z,980.92
2017-11-27T00:39:09.431Z,980.90
2017-11-27T00:40:09.458Z,980.91
2017-11-27T00:41:09.499Z,980.90
2017-11-27T00:42:09.540Z,980.95
2017-11-27T00:43:09.580Z,980.95
2017-11-27T00:44:10.251Z,980.96
2017-11-27T00:45:09.664Z,980.94
2017-11-27T00:46:09.708Z,980.98
2017-11-27T00:47:09.749Z,980.97
2017-11-27T00:48:09.791Z,980.98
2017-11-27T00:49:09.849Z,980.96
2017-11-27T00:50:09.891Z,981.03
2017-11-27T00:51:09.916Z,981.05
2017-11-27T00:52:09.969Z,981.02
2017-11-27T00:53:10.014Z,981.05
2017-11-27T00:54:10.062Z,981.04
2017-11-27T00:55:10.099Z,981.02
2017-11-27T00:56:10.126Z,981.04
2017-11-27T00:57:10.166Z,981.02
2017-11-27T00:58:10.214Z,981.05
2017-11-27T00:59:10.260Z,981.04
2017-11-27T01:00:10.315Z,981.03
2017-11-27T01:01:10.334Z,981.02
2017-11-27T01:02:10.377Z,981.07
2017-11-27T01:03:10.420Z,981.08
2017-11-27T01:04:10.468Z,981.06
2017-11-27T01:05:10.522Z,981.09
2017-11-27T01:06:10.544Z,981.05
2017-11-27T01:07:10.587Z,981.09
2017-11-27T01:08:10.629Z,981.08
2017-11-27T01:09:10.670Z,981.14
2017-11-27T01:10:10.728Z,981.03
2017-11-27T01:11:10.759Z,981.10
2017-11-27T01:12:10.800Z,981.11
2017-11-27T01:13:10.836Z,981.07
2017-11-27T01:14:10.878Z,981.09
2017-11-27T01:15:10.936Z,981.13
2017-11-27T01:16:10.965Z,981.14
2017-11-27T01:18:47.442Z,981.14
2017-11-27T01:19:47.474Z,981.14
2017-11-27T01:20:47.503Z,981.17
2017-11-27T01:21:47.547Z,981.14
2017-11-27T01:22:47.607Z,981.15
2017-11-27T01:23:47.629Z,981.18
2017-11-27T01:24:47.671Z,981.18
2017-11-27T01:25:47.715Z,981.19
2017-11-27T01:26:47.762Z,981.18
2017-11-27T01:27:47.813Z,981.22
2017-11-27T01:28:47.839Z,981.20
2017-11-27T01:29:47.882Z,981.18
2017-11-27T01:30:47.925Z,981.18
2017-11-27T01:31:47.980Z,981.20
2017-11-27T01:32:48.021Z,981.14
2017-11-27T01:33:48.048Z,981.19
2017-11-27T01:34:48.093Z,981.21
2017-11-27T01:35:48.134Z,981.17
2017-11-27T01:36:48.173Z,981.22
2017-11-27T01:37:48.246Z,981.20
2017-11-27T01:38:48.258Z,981.21
2017-11-27T01:39:48.302Z,981.25
2017-11-27T01:40:48.344Z,981.26
2017-11-27T01:41:48.380Z,981.22
2017-11-27T01:42:48.441Z,981.22
2017-11-27T01:43:48.465Z,981.24
2017-11-27T01:44:48.511Z,981.20
2017-11-27T01:45:48.561Z,981.21
2017-11-27T01:46:48.591Z,981.25
2017-11-27T01:47:48.648Z,981.24
2017-11-27T01:48:48.691Z,981.27
2017-11-27T01:49:48.716Z,981.27
2017-11-27T01:50:48.761Z,981.24
2017-11-27T01:51:48.801Z,981.27
2017-11-27T01:52:48.840Z,981.27
2017-11-27T01:53:48.900Z,981.23
2017-11-27T01:54:48.924Z,981.28
2017-11-27T01:55:48.966Z,981.27
2017-11-27T01:56:49.009Z,981.32
2017-11-27T01:57:49.050Z,981.24
2017-11-27T01:58:49.106Z,981.27
2017-11-27T01:59:49.148Z,981.26
2017-11-27T02:00:49.178Z,981.23
2017-11-27T02:01:49.217Z,981.24
2017-11-27T02:02:49.260Z,981.27
2017-11-27T02:03:49.300Z,981.24
2017-11-27T02:04:49.359Z,981.26
2017-11-27T02:05:49.384Z,981.26
2017-11-27T02:06:49.425Z,981.32
2017-11-27T02:07:49.468Z,981.31
2017-11-27T02:08:49.508Z,981.32
2017-11-27T02:09:49.572Z,981.28
2017-11-27T02:10:49.594Z,981.30
2017-11-27T02:11:49.642Z,981.28
2017-11-27T02:12:49.675Z,981.29
2017-11-27T02:13:49.716Z,981.29
2017-11-27T02:14:49.779Z,981.29
2017-11-27T02:15:49.799Z,981.29
2017-11-27T02:16:49.842Z,981.32
2017-11-27T02:17:49.891Z,981.30
2017-11-27T02:18:49.926Z,981.28
2017-11-27T02:19:49.982Z,981.25
2017-11-27T02:20:50.009Z,981.24
2017-11-27T02:21:50.051Z,981.28
2017-11-27T02:22:50.094Z,981.27
2017-11-27T02:23:50.133Z,981.23
2017-11-27T02:24:50.192Z,981.29
2017-11-27T02:25:50.233Z,981.21
2017-11-27T02:26:50.260Z,981.24
2017-11-27T02:27:50.301Z,981.25
2017-11-27T02:28:50.344Z,981.24
2017-11-27T02:29:50.387Z,981.24
2017-11-27T02:30:50.440Z,981.18
2017-11-27T02:31:50.468Z,981.22
2017-11-27T02:32:50.509Z,981.23
2017-11-27T02:33:50.553Z,981.23
2017-11-27T02:34:50.594Z,981.19
2017-11-27T02:35:50.652Z,981.20
2017-11-27T02:36:50.677Z,981.24
2017-11-27T02:37:50.721Z,981.20
2017-11-27T02:38:50.766Z,981.15
2017-11-27T02:39:50.805Z,981.23
2017-11-27T02:40:50.862Z,981.22
2017-11-27T02:41:50.890Z,981.21
2017-11-27T02:42:50.928Z,981.21
2017-11-27T02:43:50.969Z,981.15
2017-11-27T02:44:51.013Z,981.15
2017-11-27T02:45:51.067Z,981.17
2017-11-27T02:46:51.108Z,981.11
2017-11-27T02:47:51.934Z,981.16
2017-11-27T02:48:51.178Z,981.16
2017-11-27T02:49:51.223Z,981.12
2017-11-27T02:50:51.275Z,981.14
2017-11-27T02:51:51.304Z,981.12
2017-11-27T02:52:51.345Z,981.10
2017-11-27T02:53:51.385Z,981.11
2017-11-27T02:54:51.427Z,981.08
2017-11-27T02:55:51.487Z,981.07
2017-11-27T02:56:51.528Z,981.11
2017-11-27T02:57:51.554Z,981.12
2017-11-27T02:58:51.595Z,981.14
2017-11-27T02:59:51.637Z,981.11
2017-11-27T03:00:51.682Z,981.10
2017-11-27T03:01:51.747Z,981.06
2017-11-27T03:04:27.943Z,981.04
2017-11-27T03:05:27.966Z,981.07
2017-11-27T03:06:28.025Z,981.08
2017-11-27T03:07:28.052Z,981.07
2017-11-27T03:08:28.099Z,981.02
2017-11-27T03:09:28.133Z,981.06
2017-11-27T03:10:28.172Z,981.06
2017-11-27T03:11:28.240Z,981.09
2017-11-27T03:12:28.272Z,981.10
2017-11-27T03:13:28.299Z,981.10
2017-11-27T03:14:28.342Z,981.09
2017-11-27T03:15:28.382Z,981.12
2017-11-27T03:16:28.440Z,981.07
2017-11-27T03:19:04.167Z,981.06
2017-11-27T03:20:04.196Z,981.02
2017-11-27T03:21:04.234Z,981.02
2017-11-27T03:22:04.276Z,981.03
2017-11-27T03:23:04.336Z,981.03
2017-11-27T03:24:04.364Z,981.02
2017-11-27T03:25:04.401Z,981.04
2017-11-27T03:26:04.443Z,981.02
2017-11-27T03:27:04.486Z,981.05
2017-11-27T03:28:04.548Z,981.04
2017-11-27T03:29:04.565Z,981.01
2017-11-27T03:30:04.615Z,981.02
2017-11-27T03:31:04.655Z,981.02
2017-11-27T03:32:04.698Z,981.02
2017-11-27T03:33:04.753Z,981.02
2017-11-27T03:34:04.791Z,981.04
2017-11-27T03:35:04.821Z,981.03
2017-11-27T03:36:04.869Z,981.02
2017-11-27T03:37:04.902Z,981.01
2017-11-27T03:38:04.964Z,981.02
2017-11-27T03:39:04.984Z,981.05
2017-11-27T03:40:05.034Z,981.02
2017-11-27T03:41:05.069Z,981.01
2017-11-27T03:42:05.113Z,980.97
2017-11-27T03:43:05.170Z,980.95
2017-11-27T03:44:05.214Z,980.92
2017-11-27T03:45:05.239Z,980.94
2017-11-27T03:46:05.297Z,980.93
2017-11-27T03:47:05.324Z,980.90
2017-11-27T03:48:05.363Z,980.88
2017-11-27T03:49:05.429Z,980.86
2017-11-27T03:50:05.446Z,980.90
2017-11-27T03:51:05.489Z,980.83
2017-11-27T03:52:05.531Z,980.86
2017-11-27T03:53:05.571Z,980.81
2017-11-27T03:54:05.631Z,980.85
2017-11-27T03:55:05.660Z,980.85
2017-11-27T03:56:05.700Z,980.83
2017-11-27T03:57:05.743Z,980.81
2017-11-27T03:58:05.789Z,980.82
2017-11-27T03:59:05.842Z,980.78
2017-11-27T04:00:05.865Z,980.80
2017-11-27T04:01:05.907Z,980.77
2017-11-27T04:02:05.951Z,980.76
2017-11-27T04:03:06.016Z,980.77
2017-11-27T04:04:06.032Z,980.78
2017-11-27T04:05:06.075Z,980.78
2017-11-27T04:06:06.133Z,980.71
2017-11-27T04:07:06.161Z,980.73
2017-11-27T04:08:06.204Z,980.76
2017-11-27T04:09:06.251Z,980.75
2017-11-27T04:10:06.284Z,980.74
2017-11-27T04:11:06.343Z,980.70
2017-11-27T04:12:06.369Z,980.71
2017-11-27T04:13:06.411Z,980.72
2017-11-27T04:14:06.452Z,980.74
2017-11-27T04:15:06.497Z,980.70
2017-11-27T04:16:06.552Z,980.74
2017-11-27T04:17:06.580Z,980.68
2017-11-27T04:19:42.503Z,980.74
2017-11-27T04:20:42.545Z,980.69
2017-11-27T04:21:42.572Z,980.73
2017-11-27T04:22:42.613Z,980.72
2017-11-27T04:23:42.657Z,980.69
2017-11-27T04:24:42.702Z,980.71
2017-11-27T04:25:42.753Z,980.71
2017-11-27T04:26:42.788Z,980.75
2017-11-27T04:27:42.825Z,980.65
2017-11-27T04:28:42.865Z,980.75
2017-11-27T04:29:42.905Z,980.74
2017-11-27T04:30:42.968Z,980.68
2017-11-27T04:31:43.012Z,980.68
2017-11-27T04:32:43.038Z,980.65
2017-11-27T04:33:43.074Z,980.65
2017-11-27T04:34:43.114Z,980.69
2017-11-27T04:35:43.178Z,980.65
2017-11-27T04:36:43.198Z,980.60
2017-11-27T04:37:44.080Z,980.61
2017-11-27T04:38:43.284Z,980.60
2017-11-27T04:39:43.326Z,980.57
2017-11-27T04:40:43.383Z,980.64
2017-11-27T04:41:43.417Z,980.55
2017-11-27T04:42:43.467Z,980.52
2017-11-27T04:43:43.492Z,980.57
2017-11-27T04:44:43.535Z,980.55
2017-11-27T04:45:43.575Z,980.49
2017-11-27T04:46:43.634Z,980.46
2017-11-27T04:47:43.683Z,980.42
2017-11-27T04:48:43.704Z,980.41
2017-11-27T04:49:43.750Z,980.52
2017-11-27T04:50:43.787Z,980.42
2017-11-27T04:51:43.827Z,980.44
2017-11-27T04:52:43.888Z,980.47
2017-11-27T04:53:43.915Z,980.44
2017-11-27T04:54:43.951Z,980.45
2017-11-27T04:55:43.993Z,980.41
2017-11-27T04:56:44.058Z,980.36
2017-11-27T04:57:44.075Z,980.42
2017-11-27T04:58:44.138Z,980.38
2017-11-27T04:59:44.171Z,980.43
2017-11-27T05:00:44.201Z,980.49
2017-11-27T05:01:44.243Z,980.46
2017-11-27T05:02:44.288Z,980.51
2017-11-27T05:03:44.345Z,980.49
2017-11-27T05:04:44.368Z,980.48
2017-11-27T05:05:44.412Z,980.51
2017-11-27T05:06:44.456Z,980.46
2017-11-27T05:07:44.514Z,980.53
2017-11-27T05:08:44.537Z,980.52
2017-11-27T05:09:44.578Z,980.54
2017-11-27T05:10:44.627Z,980.49
2017-11-27T05:11:44.670Z,980.58
2017-11-27T05:12:44.719Z,980.51
2017-11-27T05:13:44.745Z,980.55
2017-11-27T05:14:44.793Z,980.52
2017-11-27T05:15:44.831Z,980.56
2017-11-27T05:16:44.879Z,980.57
2017-11-27T05:17:44.928Z,980.55
2017-11-27T05:20:21.860Z,980.55
2017-11-27T05:21:21.888Z,980.55
2017-11-27T05:22:21.928Z,980.55
2017-11-27T05:23:21.971Z,980.55
2017-11-27T05:24:22.011Z,980.55
2017-11-27T05:25:22.070Z,980.59
2017-11-27T05:26:22.096Z,980.55
2017-11-27T05:27:22.135Z,980.48
2017-11-27T05:28:22.194Z,980.58
2017-11-27T05:29:22.220Z,980.59
2017-11-27T05:30:22.266Z,980.60
2017-11-27T05:31:22.331Z,980.62
2017-11-27T05:32:22.346Z,980.61
2017-11-27T05:33:22.402Z,980.58
2017-11-27T05:34:22.427Z,980.58
2017-11-27T05:35:22.470Z,980.57
2017-11-27T05:36:22.533Z,980.58
2017-11-27T05:37:22.554Z,980.59
2017-11-27T05:38:22.596Z,980.55
2017-11-27T05:39:22.647Z,980.61
2017-11-27T05:40:22.681Z,980.59
2017-11-27T05:41:22.743Z,980.54
2017-11-27T05:42:22.769Z,980.59
2017-11-27T05:43:22.818Z,980.55
2017-11-27T05:44:22.863Z,980.57
2017-11-27T05:45:22.892Z,980.49
2017-11-27T05:46:22.931Z,980.49
2017-11-27T05:47:22.992Z,980.49
2017-11-27T05:48:23.017Z,980.51
2017-11-27T05:49:23.074Z,980.47
2017-11-27T05:50:23.100Z,980.44
2017-11-27T05:51:23.144Z,980.46
2017-11-27T05:52:23.187Z,980.46
2017-11-27T05:53:23.226Z,980.50
2017-11-27T05:54:23.285Z,980.51
2017-11-27T05:55:23.313Z,980.52
2017-11-27T05:56:23.347Z,980.55
2017-11-27T05:57:23.393Z,980.51
2017-11-27T05:58:23.435Z,980.52
2017-11-27T05:59:23.495Z,980.54
2017-11-27T06:00:23.537Z,980.52
2017-11-27T06:01:23.559Z,980.48
2017-11-27T06:02:23.617Z,980.47
2017-11-27T06:03:23.644Z,980.50
2017-11-27T06:04:23.685Z,980.52
2017-11-27T06:05:23.750Z,980.51
2017-11-27T06:06:23.783Z,980.52
2017-11-27T06:07:23.813Z,980.54
2017-11-27T06:08:23.858Z,980.52
2017-11-27T06:09:23.899Z,980.50
2017-11-27T06:10:23.956Z,980.51
2017-11-27T06:11:23.980Z,980.53
2017-11-27T06:12:24.021Z,980.50
2017-11-27T06:13:24.065Z,980.51
2017-11-27T06:14:24.106Z,980.47
2017-11-27T06:15:24.165Z,980.43
2017-11-27T06:16:24.190Z,980.48
2017-11-27T06:17:24.237Z,980.46
2017-11-27T06:18:24.275Z,980.49
2017-11-27T06:19:24.320Z,980.47
2017-11-27T06:20:24.375Z,980.47
2017-11-27T06:21:24.401Z,980.51
2017-11-27T06:22:24.445Z,980.46
2017-11-27T06:23:24.488Z,980.48
2017-11-27T06:24:24.529Z,980.47
2017-11-27T06:25:24.584Z,980.48
2017-11-27T06:26:24.612Z,980.46
2017-11-27T06:27:24.651Z,980.47
2017-11-27T06:28:24.712Z,980.47
2017-11-27T06:29:24.735Z,980.54
2017-11-27T06:30:24.780Z,980.55
2017-11-27T06:31:24.823Z,980.53
2017-11-27T06:32:24.886Z,980.59
2017-11-27T06:33:24.905Z,980.58
2017-11-27T06:34:24.948Z,980.57
2017-11-27T06:35:24.989Z,980.60
2017-11-27T06:36:25.030Z,980.60
2017-11-27T06:37:25.088Z,980.59
2017-11-27T06:38:25.120Z,980.60
2017-11-27T06:39:25.167Z,980.62
2017-11-27T06:40:25.197Z,980.61
2017-11-27T06:41:25.252Z,980.60
2017-11-27T06:42:25.302Z,980.60
2017-11-27T06:43:25.326Z,980.64
2017-11-27T06:44:25.368Z,980.57
2017-11-27T06:45:25.413Z,980.58
2017-11-27T06:46:25.452Z,980.61
2017-11-27T06:47:25.520Z,980.59
2017-11-27T06:48:25.538Z,980.62
2017-11-27T06:49:25.577Z,980.58
2017-11-27T06:50:25.619Z,980.63
2017-11-27T06:51:25.679Z,980.64
2017-11-27T06:52:25.704Z,980.64
2017-11-27T06:53:25.762Z,980.65
2017-11-27T06:54:25.788Z,980.62
2017-11-27T06:55:25.839Z,980.66
2017-11-27T06:56:25.892Z,980.69
2017-11-27T06:57:25.918Z,980.70
2017-11-27T06:58:25.966Z,980.60
2017-11-27T06:59:26.000Z,980.67
2017-11-27T07:00:26.041Z,980.64
2017-11-27T07:01:26.103Z,980.69
2017-11-27T07:02:26.123Z,980.66
2017-11-27T07:03:26.168Z,980.68
2017-11-27T07:04:26.210Z,980.71
2017-11-27T07:05:26.254Z,980.71
2017-11-27T07:06:26.741Z,980.73
2017-11-27T07:07:26.334Z,980.74
2017-11-27T07:08:26.378Z,980.77
2017-11-27T07:09:26.421Z,980.78
2017-11-27T07:10:26.480Z,980.75
2017-11-27T07:11:26.504Z,980.75
2017-11-27T07:12:26.562Z,980.73
2017-11-27T07:13:26.587Z,980.69
2017-11-27T07:14:26.629Z,980.69
2017-11-27T07:15:26.687Z,980.65
2017-11-27T07:16:26.722Z,980.70
2017-11-27T07:17:26.780Z,980.75
2017-11-27T07:18:26.802Z,980.73
2017-11-27T07:19:26.844Z,980.80
2017-11-27T07:20:26.883Z,980.80
2017-11-27T07:21:26.925Z,980.81
2017-11-27T07:22:26.983Z,980.77
2017-11-27T07:23:27.009Z,980.82
2017-11-27T07:24:27.051Z,980.80
2017-11-27T07:25:27.091Z,980.81
2017-11-27T07:26:27.133Z,980.80
2017-11-27T07:27:27.191Z,980.81
2017-11-27T07:28:27.218Z,980.85
2017-11-27T07:29:27.263Z,980.85
2017-11-27T07:30:27.302Z,980.83
2017-11-27T07:31:27.347Z,980.83
2017-11-27T07:32:27.401Z,980.80
2017-11-27T07:33:27.429Z,980.81
2017-11-27T07:36:03.457Z,980.83
2017-11-27T07:37:03.473Z,980.84
2017-11-27T07:38:03.535Z,980.82
2017-11-27T07:39:03.559Z,980.83
2017-11-27T07:40:03.601Z,980.86
2017-11-27T07:41:03.648Z,980.89
2017-11-27T07:42:03.683Z,980.84
2017-11-27T07:43:03.739Z,980.84
2017-11-27T07:44:03.770Z,980.86
2017-11-27T07:45:03.829Z,980.87
2017-11-27T07:46:03.850Z,980.86
2017-11-27T07:47:03.933Z,980.90
2017-11-27T07:48:03.958Z,980.91
2017-11-27T07:50:39.698Z,980.89
2017-11-27T07:51:39.725Z,980.91
2017-11-27T07:52:39.792Z,980.90
2017-11-27T07:53:39.810Z,980.90
2017-11-27T07:54:39.859Z,980.90
2017-11-27T07:55:39.913Z,980.91
2017-11-27T07:56:39.936Z,980.89
2017-11-27T07:57:40.008Z,980.90
2017-11-27T07:58:40.021Z,980.83
2017-11-27T07:59:40.097Z,980.84
2017-11-27T08:00:40.104Z,980.84
2017-11-27T08:01:40.188Z,980.78
2017-11-27T08:02:40.216Z,980.81
2017-11-27T08:03:40.235Z,980.77
2017-11-27T08:04:40.279Z,980.83
2017-11-27T08:05:40.341Z,980.76
2017-11-27T08:06:40.362Z,980.81
2017-11-27T08:07:40.401Z,980.78
2017-11-27T08:08:40.446Z,980.81
2017-11-27T08:09:40.491Z,980.81
2017-11-27T08:10:40.544Z,980.82
2017-11-27T08:11:40.571Z,980.81
2017-11-27T08:12:40.615Z,980.81
2017-11-27T08:13:40.675Z,980.83
2017-11-27T08:14:40.712Z,980.88
2017-11-27T08:15:40.764Z,980.83
2017-11-27T08:16:40.786Z,980.83
2017-11-27T08:17:40.835Z,980.79
2017-11-27T08:18:40.868Z,980.84
2017-11-27T08:19:40.911Z,980.76
2017-11-27T08:20:40.973Z,980.78
2017-11-27T08:21:40.995Z,980.80
2017-11-27T08:22:41.040Z,980.78
2017-11-27T08:23:41.081Z,980.76
2017-11-27T08:24:41.124Z,980.73
2017-11-27T08:25:41.183Z,980.67
2017-11-27T08:26:41.225Z,980.65
2017-11-27T08:27:41.253Z,980.68
2017-11-27T08:28:41.295Z,980.70
2017-11-27T08:29:41.339Z,980.68
2017-11-27T08:30:41.394Z,980.70
2017-11-27T08:31:41.439Z,980.66
2017-11-27T08:32:41.480Z,980.68
2017-11-27T08:33:41.516Z,980.66
2017-11-27T08:34:41.554Z,980.68
2017-11-27T08:35:41.595Z,980.66
2017-11-27T08:36:41.652Z,980.64
2017-11-27T08:37:41.682Z,980.70
2017-11-27T08:38:41.721Z,980.70
2017-11-27T08:39:41.771Z,980.73
2017-11-27T08:40:41.805Z,980.70
2017-11-27T08:41:41.881Z,980.61
2017-11-27T08:42:41.895Z,980.66
2017-11-27T08:43:41.934Z,980.69
2017-11-27T08:44:41.976Z,980.75
2017-11-27T08:45:42.029Z,980.71
2017-11-27T08:46:42.082Z,980.77
2017-11-27T08:47:42.107Z,980.82
2017-11-27T08:48:42.149Z,980.80
2017-11-27T08:49:42.190Z,980.76
2017-11-27T08:50:42.234Z,980.78
2017-11-27T08:51:42.297Z,980.69
2017-11-27T08:52:42.318Z,980.69
2017-11-27T08:53:42.360Z,980.64
2017-11-27T08:54:42.405Z,980.64
2017-11-27T08:55:42.452Z,980.62
2017-11-27T08:56:42.506Z,980.69
2017-11-27T08:57:42.528Z,980.61
2017-11-27T08:58:42.576Z,980.54
2017-11-27T08:59:42.615Z,980.59
2017-11-27T09:00:42.658Z,980.55
2017-11-27T09:01:42.722Z,980.57
2017-11-27T09:02:42.753Z,980.49
2017-11-27T09:03:42.803Z,980.50
2017-11-27T09:04:42.828Z,980.49
2017-11-27T09:05:42.871Z,980.40
2017-11-27T09:06:42.914Z,980.41
2017-11-27T09:07:42.956Z,980.41
2017-11-27T09:08:43.014Z,980.46
2017-11-27T09:09:43.042Z,980.42
2017-11-27T09:10:43.096Z,980.46
2017-11-27T09:11:43.128Z,980.43
2017-11-27T09:12:43.170Z,980.45
2017-11-27T09:13:43.229Z,980.46
2017-11-27T09:14:43.255Z,980.49
2017-11-27T09:15:43.299Z,980.51
2017-11-27T09:16:43.340Z,980.47
2017-11-27T09:17:43.385Z,980.45
2017-11-27T09:18:43.445Z,980.41
2017-11-27T09:19:43.469Z,980.43
2017-11-27T09:20:43.512Z,980.39
2017-11-27T09:21:43.556Z,980.43
2017-11-27T09:22:43.598Z,980.39
2017-11-27T09:23:43.657Z,980.37
2017-11-27T09:24:43.684Z,980.35
2017-11-27T09:25:43.726Z,980.37
2017-11-27T09:26:43.774Z,980.38
2017-11-27T09:27:43.812Z,980.43
2017-11-27T09:28:43.876Z,980.43
2017-11-27T09:29:43.896Z,980.45
2017-11-27T09:30:43.957Z,980.43
2017-11-27T09:31:43.983Z,980.46
2017-11-27T09:32:44.027Z,980.44
2017-11-27T09:33:44.087Z,980.41
2017-11-27T09:34:44.117Z,980.46
2017-11-27T09:35:44.175Z,980.41
2017-11-27T09:36:44.199Z,980.41
2017-11-27T09:37:44.243Z,980.41
2017-11-27T09:38:44.289Z,980.39
2017-11-27T09:39:44.334Z,980.44
2017-11-27T09:40:44.389Z,980.41
2017-11-27T09:41:44.421Z,980.35
2017-11-27T09:42:44.462Z,980.38
2017-11-27T09:43:44.503Z,980.38
2017-11-27T09:44:44.549Z,980.36
2017-11-27T09:45:44.603Z,980.38
2017-11-27T09:46:44.654Z,980.42
2017-11-27T09:47:44.670Z,980.36
2017-11-27T09:48:44.720Z,980.36
2017-11-27T09:49:44.761Z,980.35
2017-11-27T09:50:44.813Z,980.30
2017-11-27T09:51:44.870Z,980.28
2017-11-27T09:52:44.895Z,980.30
2017-11-27T09:53:44.939Z,980.28
2017-11-27T09:54:44.977Z,980.29
2017-11-27T09:55:45.024Z,980.26
2017-11-27T09:56:45.079Z,980.31
2017-11-27T09:57:45.132Z,980.26
2017-11-27T09:58:45.153Z,980.21
2017-11-27T09:59:45.193Z,980.22
2017-11-27T10:00:45.238Z,980.17
2017-11-27T10:01:45.280Z,980.20
2017-11-27T10:02:45.340Z,980.22
2017-11-27T10:03:45.367Z,980.18
2017-11-27T10:04:45.411Z,980.15
2017-11-27T10:05:45.458Z,980.13
2017-11-27T10:06:45.513Z,980.12
2017-11-27T10:07:45.560Z,980.18
2017-11-27T10:08:45.584Z,980.13
2017-11-27T10:09:45.643Z,980.11
2017-11-27T10:10:45.666Z,980.06
2017-11-27T10:11:45.715Z,980.04
2017-11-27T10:12:45.782Z,980.04
2017-11-27T10:13:45.818Z,980.02
2017-11-27T10:14:45.850Z,979.97
2017-11-27T10:15:45.892Z,979.99
2017-11-27T10:16:45.934Z,979.97
2017-11-27T10:17:45.980Z,979.90
2017-11-27T10:18:46.035Z,979.87
2017-11-27T10:19:46.064Z,979.93
2017-11-27T10:20:46.111Z,979.84
2017-11-27T10:21:46.150Z,979.87
2017-11-27T10:22:46.198Z,979.83
2017-11-27T10:23:46.268Z,979.86
2017-11-27T10:24:46.283Z,979.83
2017-11-27T10:25:46.346Z,979.81
2017-11-27T10:26:46.371Z,979.77
2017-11-27T10:27:46.414Z,979.79
2017-11-27T10:28:46.456Z,979.76
2017-11-27T10:29:46.524Z,979.74
2017-11-27T10:30:46.543Z,979.71
2017-11-27T10:31:46.608Z,979.67
2017-11-27T10:32:46.631Z,979.69
2017-11-27T10:33:46.674Z,979.66
2017-11-27T10:34:46.744Z,979.62
2017-11-27T10:35:46.761Z,979.61
2017-11-27T10:36:46.824Z,979.58
2017-11-27T10:37:46.856Z,979.61
2017-11-27T10:38:46.894Z,979.55
2017-11-27T10:39:46.946Z,979.49
2017-11-27T10:40:46.982Z,979.46
2017-11-27T10:41:47.049Z,979.45
2017-11-27T10:42:47.070Z,979.43
2017-11-27T10:43:47.111Z,979.44
2017-11-27T10:44:47.176Z,979.41
2017-11-27T10:45:47.201Z,979.39
2017-11-27T10:46:47.251Z,979.42
2017-11-27T10:47:47.291Z,979.41
2017-11-27T10:48:47.353Z,979.42
2017-11-27T10:49:48.231Z,979.40
2017-11-27T10:50:47.427Z,979.39
2017-11-27T10:51:47.472Z,979.37
2017-11-27T10:52:47.515Z,979.35
2017-11-27T10:53:47.580Z,979.34
2017-11-27T10:54:47.607Z,979.33
2017-11-27T10:55:47.648Z,979.31
2017-11-27T10:56:47.712Z,979.37
2017-11-27T10:57:47.738Z,979.33
2017-11-27T10:58:47.810Z,979.31
2017-11-27T10:59:47.827Z,979.34
2017-11-27T11:00:47.874Z,979.27
2017-11-27T11:01:47.918Z,979.28
2017-11-27T11:02:47.959Z,979.24
2017-11-27T11:03:48.040Z,979.20
2017-11-27T11:04:48.054Z,979.16
2017-11-27T11:05:48.102Z,979.18
2017-11-27T11:06:48.145Z,979.13
2017-11-27T11:07:48.198Z,979.12
2017-11-27T11:08:48.256Z,979.10
2017-11-27T11:09:48.281Z,979.09
2017-11-27T11:10:48.327Z,979.10
2017-11-27T11:11:48.370Z,979.05
2017-11-27T11:12:48.412Z,979.04
2017-11-27T11:13:48.477Z,979.03
2017-11-27T11:14:48.508Z,978.97
2017-11-27T11:15:48.555Z,978.92
2017-11-27T11:16:48.600Z,978.91
2017-11-27T11:17:48.652Z,978.89
2017-11-27T11:18:48.711Z,978.83
2017-11-27T11:19:48.735Z,978.81
2017-11-27T11:20:48.784Z,978.88
2017-11-27T11:21:48.825Z,978.87
2017-11-27T11:22:48.871Z,978.81
2017-11-27T11:23:48.943Z,978.82
2017-11-27T11:24:48.967Z,978.82
2017-11-27T11:25:49.009Z,978.79
2017-11-27T11:26:49.055Z,978.75
2017-11-27T11:27:49.100Z,978.73
2017-11-27T11:28:49.158Z,978.68
2017-11-27T11:29:49.186Z,978.63
2017-11-27T11:30:49.237Z,978.65
2017-11-27T11:31:49.282Z,978.63
2017-11-27T11:32:49.343Z,978.63
2017-11-27T11:33:49.375Z,978.60
2017-11-27T11:34:49.442Z,978.65
2017-11-27T11:35:49.464Z,978.59
2017-11-27T11:36:49.509Z,978.61
2017-11-27T11:37:49.564Z,978.56
2017-11-27T11:38:49.599Z,978.55
2017-11-27T11:39:49.670Z,978.58
2017-11-27T11:40:49.692Z,978.55
2017-11-27T11:41:49.741Z,978.54
2017-11-27T11:42:49.787Z,978.53
2017-11-27T11:43:49.832Z,978.53
2017-11-27T11:44:49.896Z,978.52
2017-11-27T11:45:49.926Z,978.46
2017-11-27T11:46:49.971Z,978.48
2017-11-27T11:47:50.016Z,978.43
2017-11-27T11:48:50.065Z,978.38
2017-11-27T11:49:50.128Z,978.37
2017-11-27T11:50:50.156Z,978.33
2017-11-27T11:51:50.202Z,978.32
2017-11-27T11:52:50.247Z,978.26
2017-11-27T11:53:50.292Z,978.29
2017-11-27T11:54:50.361Z,978.23
2017-11-27T11:55:50.401Z,978.21
2017-11-27T11:56:50.443Z,978.19
2017-11-27T11:57:50.484Z,978.21
2017-11-27T11:58:50.525Z,978.17
2017-11-27T11:59:50.569Z,978.23
2017-11-27T12:00:50.637Z,978.16
2017-11-27T12:01:50.663Z,978.18
2017-11-27T12:02:50.707Z,978.14
2017-11-27T12:03:50.759Z,978.19
2017-11-27T12:04:50.798Z,978.15
2017-11-27T12:05:50.865Z,978.09
2017-11-27T12:06:50.895Z,978.10
2017-11-27T12:07:50.933Z,978.08
2017-11-27T12:08:50.981Z,978.02
2017-11-27T12:09:51.031Z,978.01
2017-11-27T12:10:51.296Z,978.10
2017-11-27T12:11:51.120Z,978.07
2017-11-27T12:12:51.161Z,978.06
2017-11-27T12:13:51.215Z,978.06
2017-11-27T12:14:51.252Z,978.06
2017-11-27T12:15:51.313Z,978.04
2017-11-27T12:16:51.341Z,977.96
2017-11-27T12:17:51.386Z,977.98
2017-11-27T12:18:51.433Z,977.86
2017-11-27T12:19:51.481Z,977.94
2017-11-27T12:20:51.541Z,977.88
2017-11-27T12:21:51.573Z,977.88
2017-11-27T12:22:51.618Z,977.82
2017-11-27T12:23:51.660Z,977.83
2017-11-27T12:24:51.708Z,977.91
2017-11-27T12:25:51.768Z,977.81
2017-11-27T12:26:51.802Z,977.86
2017-11-27T12:27:51.865Z,977.79
2017-11-27T12:28:51.887Z,977.83
2017-11-27T12:29:51.936Z,977.78
2017-11-27T12:30:51.980Z,977.79
2017-11-27T12:31:52.041Z,977.79
2017-11-27T12:32:52.069Z,977.77
2017-11-27T12:33:52.136Z,977.75
2017-11-27T12:34:52.164Z,977.73
2017-11-27T12:35:52.209Z,977.70
2017-11-27T12:36:52.273Z,977.71
2017-11-27T12:37:52.305Z,977.69
2017-11-27T12:38:52.351Z,977.67
2017-11-27T12:39:52.411Z,977.67